Time;durP1;ratioP1;P1;durP2;ratioP2;P2;SDS_P1;SDS_P2;PMS_P1;PMS_P2;Temp;Humidity;BMP_temperature;BMP_pressure;BME280_temperature;BME280_humidity;BME280_pressure;Samples;Min_cycle;Max_cycle;Signal;HPM_P1;HPM_P2
2023/10/28 00:05:48;;;;;;;2.50;1.20;;;;;;;16.98;100.00;99191.38;4957377;28;20078;-77
2023/10/28 00:08:54;;;;;;;1.27;1.17;;;;;;;17.02;100.00;99206.16;5004023;28;20051;-76
2023/10/28 00:11:20;;;;;;;0.35;0.35;;;;;;;17.00;100.00;99214.22;4962948;28;20387;-75
2023/10/28 00:13:46;;;;;;;0.22;0.22;;;;;;;17.12;100.00;99211.94;4972813;28;20471;-75
2023/10/28 00:16:12;;;;;;;0.77;0.52;;;;;;;16.49;100.00;99107.00;4970016;28;20093;-77
2023/10/28 00:18:37;;;;;;;0.25;0.25;;;;;;;16.56;100.00;99126.13;4965602;28;20030;-75
2023/10/28 00:21:07;;;;;;;1.08;0.98;;;;;;;17.02;100.00;99215.00;4971425;28;20031;-75
2023/10/28 00:23:33;;;;;;;0.20;0.20;;;;;;;16.97;100.00;99218.78;4973487;28;20110;-75
2023/10/28 00:26:03;;;;;;;0.20;0.20;;;;;;;16.94;100.00;99218.94;4974790;28;20533;-75
2023/10/28 00:29:00;;;;;;;0.47;0.47;;;;;;;17.05;100.00;99236.06;4972692;28;20126;-76
2023/10/28 00:31:28;;;;;;;0.40;0.40;;;;;;;16.48;100.00;99155.56;4974430;28;20101;-76
2023/10/28 00:33:54;;;;;;;0.17;0.17;;;;;;;16.65;100.00;99210.47;4975683;28;20082;-75
2023/10/28 00:36:20;;;;;;;0.25;0.25;;;;;;;16.86;100.00;99227.22;4972005;28;20121;-75
2023/10/28 00:38:46;;;;;;;0.40;0.40;;;;;;;16.71;100.00;99206.66;4975375;28;20038;-76
2023/10/28 00:44:54;;;;;;;0.20;0.20;;;;;;;16.78;100.00;99246.06;4962432;28;20110;-74
2023/10/28 00:47:22;;;;;;;0.30;0.30;;;;;;;16.29;100.00;99144.94;4962676;28;20051;-77
2023/10/28 00:49:49;;;;;;;0.10;0.10;;;;;;;16.82;100.00;99237.09;4972895;28;20483;-77
2023/10/28 00:52:14;;;;;;;0.20;0.20;;;;;;;16.27;100.00;99144.16;4972495;28;20062;-76
2023/10/28 00:54:40;;;;;;;0.20;0.20;;;;;;;16.80;100.00;99231.00;4973936;28;20463;-75
2023/10/28 00:57:06;;;;;;;0.20;0.20;;;;;;;16.80;100.00;99219.53;4974163;28;20023;-77
2023/10/28 00:59:32;;;;;;;0.20;0.20;;;;;;;15.96;100.00;99091.69;4952429;28;20038;-76
2023/10/28 01:02:17;;;;;;;0.10;0.10;;;;;;;16.93;100.00;99239.28;4955042;28;20039;-77
2023/10/28 01:04:43;;;;;;;0.22;0.22;;;;;;;14.75;100.00;98886.25;4955566;28;20078;-76
2023/10/28 01:07:08;;;;;;;0.85;0.85;;;;;;;16.89;100.00;99258.88;4970102;28;20144;-75
2023/10/28 01:09:47;;;;;;;0.98;0.88;;;;;;;16.16;100.00;99141.97;4952015;28;20101;-75
2023/10/28 01:12:13;;;;;;;0.25;0.25;;;;;;;16.76;100.00;99234.66;4966861;28;20039;-76
2023/10/28 01:15:02;;;;;;;0.20;0.20;;;;;;;16.84;100.00;99264.38;4971731;28;20027;-75
2023/10/28 01:17:29;;;;;;;1.05;0.60;;;;;;;16.64;100.00;99237.88;4967716;28;20038;-76
2023/10/28 01:19:56;;;;;;;0.20;0.20;;;;;;;16.02;100.00;99169.03;4985932;28;20054;-75
2023/10/28 01:22:23;;;;;;;0.20;0.20;;;;;;;16.51;100.00;99256.09;4973108;28;20047;-75
2023/10/28 01:24:50;;;;;;;0.45;0.40;;;;;;;16.12;100.00;99180.09;4967841;28;20364;-75
2023/10/28 01:27:19;;;;;;;1.58;0.95;;;;;;;16.12;100.00;99203.91;4957707;28;20131;-76
2023/10/28 01:29:46;;;;;;;0.20;0.20;;;;;;;16.50;100.00;99270.25;4971023;28;20023;-76
2023/10/28 01:32:18;;;;;;;2.05;1.55;;;;;;;15.80;100.00;99179.66;4972574;28;20392;-76
2023/10/28 01:34:50;;;;;;;0.20;0.20;;;;;;;16.42;100.00;99289.09;4960730;28;20051;-76
2023/10/28 01:37:17;;;;;;;0.17;0.17;;;;;;;16.58;100.00;99307.00;4965562;28;20043;-78
2023/10/28 01:43:57;;;;;;;0.30;0.30;;;;;;;16.50;100.00;99311.75;4974743;28;20129;-75
2023/10/28 01:46:22;;;;;;;0.10;0.10;;;;;;;16.41;100.00;99321.81;4972829;28;20138;-77
2023/10/28 01:48:48;;;;;;;1.27;0.70;;;;;;;16.22;100.00;99304.94;4954122;28;20119;-76
2023/10/28 01:51:14;;;;;;;0.20;0.20;;;;;;;16.33;100.00;99331.84;4955216;28;20050;-75
2023/10/28 02:00:31;;;;;;;0.57;0.50;;;;;;;16.26;100.00;99356.84;4972935;28;20045;-76
2023/10/28 02:06:19;;;;;;;0.65;0.65;;;;;;;14.56;100.00;99086.75;4968626;28;20170;-77
2023/10/28 02:12:12;;;;;;;0.77;0.77;;;;;;;16.14;100.00;99325.59;4968924;28;20061;-77
2023/10/28 02:15:02;;;;;;;1.67;1.58;;;;;;;16.17;100.00;99357.22;4972348;28;20118;-77
2023/10/28 02:17:28;;;;;;;3.60;1.75;;;;;;;16.14;100.00;99360.00;4973613;28;20046;-77
2023/10/28 02:19:55;;;;;;;0.20;0.20;;;;;;;15.73;100.00;99277.81;4974064;28;20030;-77
2023/10/28 02:22:29;;;;;;;1.77;1.27;;;;;;;15.77;100.00;99282.94;4964294;28;20078;-77
2023/10/28 02:24:54;;;;;;;0.43;0.32;;;;;;;15.81;100.00;99305.69;4965475;28;20054;-78
2023/10/28 02:27:20;;;;;;;2.17;1.42;;;;;;;15.51;100.00;99251.34;4971966;28;20039;-77
2023/10/28 02:29:45;;;;;;;3.00;2.22;;;;;;;15.65;100.00;99283.38;4966922;28;20444;-77
2023/10/28 02:32:24;;;;;;;0.80;0.40;;;;;;;16.19;100.00;99366.81;4967950;28;20031;-76
2023/10/28 02:38:15;;;;;;;0.25;0.25;;;;;;;15.72;100.00;99319.28;4971783;28;20117;-76
2023/10/28 02:40:47;;;;;;;5.97;1.85;;;;;;;16.04;100.00;99380.69;4952468;28;20106;-76
2023/10/28 02:43:18;;;;;;;1.52;1.42;;;;;;;15.53;100.00;99290.00;4952322;28;20419;-76
2023/10/28 02:52:35;;;;;;;0.65;0.38;;;;;;;15.52;100.00;99266.25;4960740;28;20054;-76
2023/10/28 02:58:40;;;;;;;2.05;1.48;;;;;;;15.99;100.00;99370.28;4974019;28;20057;-76
2023/10/28 03:04:16;;;;;;;0.70;0.60;;;;;;;15.57;100.00;99330.44;4963568;28;19969;-76
2023/10/28 03:06:42;;;;;;;2.67;1.90;;;;;;;15.98;100.00;99394.13;4959522;28;20035;-76
2023/10/28 03:09:07;;;;;;;1.02;0.80;;;;;;;15.62;100.00;99354.91;4968927;28;20031;-77
2023/10/28 03:11:33;;;;;;;0.70;0.70;;;;;;;15.96;100.00;99403.91;4967652;28;20027;-75
2023/10/28 03:14:25;;;;;;;1.40;1.30;;;;;;;15.92;100.00;99404.94;4983506;28;20131;-75
2023/10/28 03:16:52;;;;;;;0.30;0.30;;;;;;;15.73;100.00;99362.44;4952292;28;20468;-76
2023/10/28 03:19:17;;;;;;;0.20;0.20;;;;;;;16.02;100.00;99401.91;4954332;28;20054;-76
2023/10/28 03:21:43;;;;;;;0.40;0.40;;;;;;;15.93;100.00;99390.81;4959557;28;20038;-76
2023/10/28 03:24:09;;;;;;;0.35;0.35;;;;;;;15.47;100.00;99294.66;4970284;28;20035;-76
2023/10/28 03:26:35;;;;;;;1.33;0.85;;;;;;;16.06;100.00;99396.47;4969635;28;20030;-77
2023/10/28 03:29:00;;;;;;;0.70;0.40;;;;;;;15.38;100.00;99296.75;4966271;28;20070;-77
2023/10/28 03:38:23;;;;;;;1.13;0.50;;;;;;;15.34;100.00;99323.34;4964799;28;21237;-78
2023/10/28 03:40:48;;;;;;;0.77;0.68;;;;;;;14.88;100.00;99265.13;4960425;28;20491;-77
2023/10/28 03:43:13;;;;;;;0.55;0.50;;;;;;;15.72;100.00;99413.63;4974011;28;20043;-74
2023/10/28 03:45:55;;;;;;;0.20;0.20;;;;;;;15.80;100.00;99449.47;4973262;28;20039;-76
2023/10/28 03:48:20;;;;;;;0.43;0.43;;;;;;;15.99;100.00;99460.22;4972960;28;20057;-76
2023/10/28 03:50:46;;;;;;;0.20;0.20;;;;;;;15.55;100.00;99401.00;4977441;28;20022;-75
2023/10/28 03:53:11;;;;;;;2.88;1.33;;;;;;;15.92;100.00;99456.09;4969087;28;20035;-78
2023/10/28 03:59:00;;;;;;;0.10;0.10;;;;;;;15.38;100.00;99380.44;4975585;28;20099;-75
2023/10/28 04:01:25;;;;;;;0.20;0.20;;;;;;;15.29;100.00;99379.03;4976580;28;20074;-75
2023/10/28 04:03:51;;;;;;;0.68;0.68;;;;;;;15.86;100.00;99458.97;4975217;28;20073;-76
2023/10/28 04:06:16;;;;;;;0.50;0.38;;;;;;;15.83;100.00;99480.25;4973600;28;20082;-78
2023/10/28 04:12:44;;;;;;;0.68;0.47;;;;;;;15.91;100.00;99464.06;4975312;28;20054;-75
2023/10/28 04:15:13;;;;;;;1.15;0.95;;;;;;;15.25;100.00;99352.75;4974111;28;25636;-77
2023/10/28 04:17:39;;;;;;;0.85;0.82;;;;;;;15.80;100.00;99457.41;4973645;28;20069;-75
2023/10/28 04:20:06;;;;;;;0.10;0.10;;;;;;;15.84;100.00;99447.56;4974631;28;20518;-76
2023/10/28 04:22:37;;;;;;;0.30;0.30;;;;;;;15.81;100.00;99458.25;4958259;28;20051;-75
2023/10/28 04:25:05;;;;;;;1.17;1.10;;;;;;;15.26;100.00;99367.69;4957349;28;20037;-76
2023/10/28 04:27:31;;;;;;;0.50;0.47;;;;;;;15.48;100.00;99405.66;4973155;28;20069;-75
2023/10/28 04:36:39;;;;;;;0.10;0.10;;;;;;;15.39;100.00;99382.19;4973830;28;20034;-79
2023/10/28 04:39:05;;;;;;;0.20;0.20;;;;;;;15.25;100.00;99384.47;4973811;28;20027;-80
2023/10/28 04:41:30;;;;;;;0.20;0.20;;;;;;;15.83;100.00;99454.66;4968843;28;20065;-79
2023/10/28 04:43:56;;;;;;;0.20;0.20;;;;;;;15.73;100.00;99453.25;4969954;28;20126;-79
2023/10/28 04:47:17;;;;;;;0.75;0.75;;;;;;;15.90;100.00;99494.97;4955067;28;20082;-81
2023/10/28 04:56:27;;;;;;;0.65;0.65;;;;;;;15.16;100.00;99377.72;4976172;28;20127;-79
2023/10/28 04:58:53;;;;;;;0.47;0.47;;;;;;;15.70;100.00;99456.00;4970117;28;20474;-75
2023/10/28 05:01:19;;;;;;;0.30;0.30;;;;;;;15.23;100.00;99381.88;4971217;28;20061;-80
2023/10/28 05:03:45;;;;;;;1.50;1.40;;;;;;;15.87;100.00;99492.41;4967920;28;20537;-78
2023/10/28 05:06:10;;;;;;;0.10;0.10;;;;;;;15.35;100.00;99401.72;4969555;28;20046;-79
2023/10/28 05:08:36;;;;;;;1.40;1.00;;;;;;;15.73;100.00;99485.00;4971747;28;20462;-78
2023/10/28 05:11:03;;;;;;;0.20;0.20;;;;;;;15.81;100.00;99498.81;4971690;28;20030;-79
2023/10/28 05:14:01;;;;;;;0.90;0.80;;;;;;;15.87;100.00;99513.56;5000221;28;20035;-80
2023/10/28 05:16:50;;;;;;;0.40;0.40;;;;;;;15.92;100.00;99514.31;4969754;28;20479;-78
2023/10/28 05:19:15;;;;;;;0.32;0.32;;;;;;;15.93;100.00;99504.56;4968399;28;20491;-80
2023/10/28 05:21:41;;;;;;;0.15;0.15;;;;;;;15.88;100.00;99498.59;4971439;28;20058;-76
2023/10/28 05:24:06;;;;;;;0.13;0.13;;;;;;;15.14;100.00;99403.34;4969836;28;20108;-77
2023/10/28 05:30:43;;;;;;;0.40;0.40;;;;;;;15.82;100.00;99537.56;4974999;28;20054;-75
2023/10/28 05:33:10;;;;;;;0.10;0.10;;;;;;;15.56;100.00;99525.22;4968974;28;20372;-77
2023/10/28 05:35:35;;;;;;;0.17;0.17;;;;;;;15.68;100.00;99549.50;4968424;28;20035;-77
2023/10/28 05:38:01;;;;;;;0.32;0.32;;;;;;;15.10;100.00;99458.09;4966506;28;20050;-77
2023/10/28 05:40:30;;;;;;;0.10;0.10;;;;;;;15.06;100.00;99450.31;4970922;28;20039;-77
2023/10/28 05:42:55;;;;;;;0.30;0.30;;;;;;;15.63;100.00;99569.03;4972037;28;20038;-79
2023/10/28 05:45:21;;;;;;;0.10;0.10;;;;;;;15.25;100.00;99474.34;4972660;28;20038;-78
2023/10/28 05:47:46;;;;;;;0.73;0.60;;;;;;;15.63;100.00;99547.88;4972371;28;20452;-77
2023/10/28 05:56:55;;;;;;;0.45;0.25;;;;;;;15.12;100.00;99489.72;4972454;28;20116;-75
2023/10/28 06:02:42;;;;;;;1.60;0.95;;;;;;;15.56;100.00;99567.53;4971270;28;20561;-77
2023/10/28 06:05:08;;;;;;;0.20;0.20;;;;;;;15.79;100.00;99601.16;4972317;28;20035;-78
2023/10/28 06:07:34;;;;;;;0.20;0.20;;;;;;;15.18;100.00;99492.19;4972848;28;20057;-77
2023/10/28 06:09:59;;;;;;;0.20;0.20;;;;;;;15.64;100.00;99575.22;4968342;28;20121;-79
2023/10/28 06:19:10;;;;;;;0.28;0.28;;;;;;;15.46;100.00;99507.09;4974327;28;20046;-79
2023/10/28 06:21:36;;;;;;;0.68;0.68;;;;;;;15.67;100.00;99542.50;4971990;28;20094;-78
2023/10/28 06:24:02;;;;;;;0.77;0.77;;;;;;;15.99;100.00;99599.59;4969645;28;20522;-79
2023/10/28 06:26:40;;;;;;;0.35;0.35;;;;;;;15.90;100.00;99607.88;4972221;28;20026;-79
2023/10/28 06:29:05;;;;;;;0.40;0.40;;;;;;;15.82;100.00;99610.78;4972105;28;20043;-79
2023/10/28 06:31:32;;;;;;;0.52;0.45;;;;;;;15.61;100.00;99552.34;4962530;28;20051;-76
2023/10/28 06:34:00;;;;;;;0.50;0.50;;;;;;;15.90;100.00;99610.53;4967493;28;20038;-73
2023/10/28 06:36:33;;;;;;;0.20;0.20;;;;;;;15.37;100.00;99513.56;4964100;28;20059;-73
2023/10/28 06:45:47;;;;;;;0.20;0.20;;;;;;;16.01;100.00;99611.88;4972678;28;20463;-73
2023/10/28 06:48:12;;;;;;;1.77;1.38;;;;;;;15.93;100.00;99586.59;4971336;28;20031;-73
2023/10/28 06:50:38;;;;;;;0.20;0.20;;;;;;;15.94;100.00;99583.88;4971356;28;20173;-74
2023/10/28 06:53:05;;;;;;;1.08;0.90;;;;;;;15.74;100.00;99530.84;4971254;28;20050;-72
2023/10/28 06:59:13;;;;;;;0.15;0.15;;;;;;;16.32;100.00;99628.41;4966978;28;20045;-73
2023/10/28 07:05:00;;;;;;;0.50;0.50;;;;;;;15.81;100.00;99516.47;4967403;28;20459;-75
2023/10/28 07:07:26;;;;;;;0.20;0.20;;;;;;;15.40;100.00;99435.03;4968230;28;20043;-75
2023/10/28 07:09:52;;;;;;;0.82;0.70;;;;;;;15.91;100.00;99527.56;4972070;28;20043;-73
2023/10/28 07:12:18;;;;;;;0.22;0.22;;;;;;;16.59;100.00;99618.59;4957540;28;20480;-73
2023/10/28 07:18:13;;;;;;;0.20;0.20;;;;;;;16.50;100.00;99603.06;4971991;28;20105;-78
2023/10/28 07:20:40;;;;;;;0.85;0.57;;;;;;;16.62;100.00;99637.03;4981107;28;20045;-81
2023/10/28 07:23:05;;;;;;;0.20;0.20;;;;;;;16.40;100.00;99607.84;4966361;28;20027;-77
2023/10/28 07:29:10;;;;;;;0.30;0.30;;;;;;;16.74;100.00;99644.53;4969479;28;20399;-76
2023/10/28 07:35:19;;;;;;;0.90;0.73;;;;;;;16.90;100.00;99651.91;4976347;28;20437;-76
2023/10/28 07:37:46;;;;;;;0.93;0.85;;;;;;;16.83;100.00;99636.28;4976479;28;20427;-76
2023/10/28 07:40:12;;;;;;;0.32;0.30;;;;;;;16.67;100.00;99593.56;4976432;28;20118;-76
2023/10/28 07:42:37;;;;;;;0.30;0.30;;;;;;;17.11;100.00;99661.69;4972027;28;20514;-76
2023/10/28 07:45:06;;;;;;;0.60;0.30;;;;;;;17.14;100.00;99658.94;4975954;28;20061;-77
2023/10/28 07:47:32;;;;;;;0.17;0.17;;;;;;;17.01;100.00;99658.53;4958136;28;20032;-77
2023/10/28 07:49:57;;;;;;;0.43;0.43;;;;;;;16.56;100.00;99566.63;4974560;28;20116;-76
2023/10/28 07:52:23;;;;;;;0.80;0.63;;;;;;;17.24;100.00;99648.81;4976342;28;20039;-77
2023/10/28 08:01:32;;;;;;;0.77;0.40;;;;;;;17.56;100.00;99679.38;4976750;28;20166;-75
2023/10/28 08:03:58;;;;;;;0.28;0.28;;;;;;;17.06;100.00;99574.38;4975967;28;20125;-75
2023/10/28 08:06:24;;;;;;;0.30;0.30;;;;;;;17.55;100.00;99639.63;4972912;28;20039;-75
2023/10/28 08:08:54;;;;;;;0.20;0.20;;;;;;;17.45;100.00;99626.75;4976314;28;20080;-76
2023/10/28 08:14:44;;;;;;;0.45;0.45;;;;;;;18.00;100.00;99678.47;4976728;28;20094;-76
2023/10/28 08:17:10;;;;;;;1.42;1.33;;;;;;;18.00;100.00;99666.03;4972731;28;20034;-75
2023/10/28 08:19:37;;;;;;;0.30;0.30;;;;;;;18.14;100.00;99695.56;4974349;28;20030;-76
2023/10/28 08:22:03;;;;;;;0.10;0.10;;;;;;;18.31;100.00;99704.59;4974341;28;20054;-76
2023/10/28 08:34:33;;;;;;;0.17;0.13;;;;;;;18.58;100.00;99688.34;4976010;28;20058;-75
2023/10/28 08:40:23;;;;;;;1.13;1.10;;;;;;;18.26;100.00;99624.22;4975774;28;20050;-74
2023/10/28 08:43:26;;;;;;;0.38;0.20;;;;;;;18.88;100.00;99712.72;4971497;28;20046;-75
2023/10/28 08:46:12;;;;;;;0.32;0.32;;;;;;;19.02;100.00;99726.25;4974040;28;20054;-75
2023/10/28 08:48:58;;;;;;;0.20;0.20;;;;;;;19.05;100.00;99720.78;4979772;28;20042;-75
2023/10/28 08:51:24;;;;;;;0.10;0.10;;;;;;;18.51;100.00;99629.31;4968342;28;20051;-74
2023/10/28 08:53:59;;;;;;;0.30;0.30;;;;;;;19.17;100.00;99716.69;4965791;28;20035;-75
2023/10/28 08:56:28;;;;;;;0.20;0.20;;;;;;;18.30;100.00;99564.72;4965873;28;20414;-78
2023/10/28 08:58:55;;;;;;;0.40;0.20;;;;;;;19.12;95.25;99708.91;4962293;28;20117;-76
2023/10/28 09:01:22;;;;;;;0.28;0.28;;;;;;;19.10;93.90;99697.50;4965342;28;20069;-74
2023/10/28 09:04:28;;;;;;;0.13;0.13;;;;;;;19.43;90.15;99734.06;4973604;28;20043;-75
2023/10/28 09:11:41;;;;;;;0.10;0.10;;;;;;;19.57;88.44;99726.31;4963406;28;20113;-76
2023/10/28 09:14:43;;;;;;;0.10;0.10;;;;;;;19.73;88.47;99726.44;4977598;28;20073;-76
2023/10/28 09:17:10;;;;;;;0.20;0.20;;;;;;;19.37;89.17;99652.75;4966611;28;20202;-77
2023/10/28 09:19:36;;;;;;;0.20;0.20;;;;;;;19.45;89.67;99644.41;4965050;28;20055;-76
2023/10/28 09:22:02;;;;;;;0.10;0.10;;;;;;;19.98;88.97;99709.28;4961067;28;20134;-76
2023/10/28 09:24:28;;;;;;;9.32;3.85;;;;;;;19.61;86.87;99628.53;4965966;28;20062;-77
2023/10/28 09:26:53;;;;;;;0.13;0.13;;;;;;;20.30;84.03;99720.97;4963813;28;20022;-77
2023/10/28 09:29:30;;;;;;;0.20;0.20;;;;;;;20.28;81.17;99711.34;4961183;28;20371;-75
2023/10/28 09:32:06;;;;;;;0.88;0.80;;;;;;;20.19;79.64;99694.00;4961377;28;20042;-75
2023/10/28 09:34:39;;;;;;;0.22;0.22;;;;;;;19.87;77.67;99629.91;4963543;28;20046;-74
2023/10/28 09:37:08;;;;;;;;;;;;;;;20.54;76.62;99717.97;4967338;28;20077;-75
2023/10/28 09:39:35;;;;;;;0.32;0.20;;;;;;;19.73;72.30;99622.63;4960584;28;19952;-76
2023/10/28 09:45:24;;;;;;;0.32;0.32;;;;;;;20.14;68.66;99654.28;4971871;28;20104;-77
2023/10/28 09:51:17;;;;;;;1.00;1.00;;;;;;;20.53;67.06;99698.44;4974443;28;20495;-77
2023/10/28 09:53:47;;;;;;;0.63;0.63;;;;;;;19.96;65.66;99628.59;4973374;28;20072;-74
2023/10/28 09:56:15;;;;;;;0.20;0.20;;;;;;;20.20;64.25;99669.06;5002574;28;20054;-76
2023/10/28 09:58:46;;;;;;;3.22;1.00;;;;;;;20.60;64.23;99717.66;4972819;28;20424;-75
2023/10/28 10:01:31;;;;;;;0.65;0.63;;;;;;;20.61;64.52;99716.75;4969812;28;20525;-76
2023/10/28 10:10:56;;;;;;;0.57;0.57;;;;;;;20.71;64.44;99720.63;4955835;28;20062;-77
2023/10/28 10:13:28;;;;;;;0.10;0.10;;;;;;;20.53;64.74;99682.44;4965725;28;20065;-77
2023/10/28 10:16:00;;;;;;;0.28;0.28;;;;;;;20.18;65.52;99625.66;4968275;28;20389;-76
2023/10/28 10:18:46;;;;;;;0.20;0.20;;;;;;;20.78;64.77;99676.69;4970543;28;20051;-75
2023/10/28 10:21:14;;;;;;;0.17;0.17;;;;;;;20.60;63.21;99637.69;4970283;28;20038;-74
2023/10/28 10:23:42;;;;;;;0.50;0.40;;;;;;;20.95;63.15;99658.91;4955054;28;20027;-76
2023/10/28 10:26:18;;;;;;;0.30;0.30;;;;;;;21.02;62.21;99678.97;4969101;28;20042;-77
2023/10/28 10:28:46;;;;;;;0.70;0.30;;;;;;;21.31;60.31;99705.88;4971677;28;20043;-77
2023/10/28 10:31:12;;;;;;;0.20;0.20;;;;;;;21.36;59.06;99688.63;4963134;28;20379;-76
2023/10/28 10:33:38;;;;;;;0.50;0.35;;;;;;;21.47;57.74;99693.41;4968540;28;20352;-75
2023/10/28 10:36:17;;;;;;;0.63;0.63;;;;;;;21.20;57.20;99631.75;4968560;28;20042;-77
2023/10/28 10:45:36;;;;;;;0.68;0.68;;;;;;;21.39;55.17;99631.53;4964280;28;20053;-75
2023/10/28 10:48:09;;;;;;;0.20;0.20;;;;;;;22.00;55.23;99725.97;4970183;28;20403;-75
2023/10/28 10:50:35;;;;;;;0.52;0.50;;;;;;;22.06;54.82;99718.47;4969119;28;20034;-75
2023/10/28 10:59:44;;;;;;;0.20;0.20;;;;;;;21.97;53.97;99705.66;4980057;28;20350;-75
2023/10/28 11:12:14;;;;;;;0.20;0.20;;;;;;;22.39;54.29;99714.78;4957375;28;23486;-78
2023/10/28 11:14:41;;;;;;;1.15;1.05;;;;;;;21.76;53.05;99627.63;4963583;28;20455;-76
2023/10/28 11:17:07;;;;;;;0.80;0.80;;;;;;;21.84;53.50;99632.50;4964640;28;20051;-76
2023/10/28 11:19:33;;;;;;;1.48;1.30;;;;;;;22.26;54.05;99685.22;4983740;28;20119;-80
2023/10/28 11:21:59;;;;;;;0.30;0.30;;;;;;;22.38;52.92;99698.81;4966405;28;20492;-76
2023/10/28 11:24:25;;;;;;;0.10;0.10;;;;;;;21.82;53.59;99608.59;4966612;28;20411;-78
2023/10/28 11:26:50;;;;;;;1.90;1.80;;;;;;;21.99;53.28;99647.66;4969818;28;20023;-80
2023/10/28 11:29:45;;;;;;;0.32;0.20;;;;;;;22.33;52.55;99699.09;4967177;28;20043;-78
2023/10/28 11:32:10;;;;;;;0.55;0.55;;;;;;;22.19;52.04;99681.19;4969997;28;20051;-77
2023/10/28 11:34:40;;;;;;;0.30;0.30;;;;;;;21.90;52.01;99632.16;4970040;28;20101;-76
2023/10/28 11:37:12;;;;;;;0.35;0.35;;;;;;;21.80;51.98;99626.50;4971020;28;20085;-77
2023/10/28 11:43:33;;;;;;;0.32;0.30;;;;;;;22.41;51.14;99706.69;4967303;28;20041;-75
2023/10/28 11:49:06;;;;;;;0.60;0.40;;;;;;;22.39;52.63;99700.56;4962062;28;20043;-75
2023/10/28 11:51:32;;;;;;;0.30;0.30;;;;;;;22.18;52.00;99706.19;4972486;28;20113;-76
2023/10/28 11:53:58;;;;;;;0.85;0.50;;;;;;;21.70;52.10;99626.19;4966961;28;20117;-76
2023/10/28 11:56:25;;;;;;;1.88;0.50;;;;;;;21.96;51.75;99684.34;4970307;28;20031;-77
2023/10/28 11:58:50;;;;;;;0.15;0.15;;;;;;;22.10;52.38;99712.00;4970962;28;20068;-75
2023/10/28 12:01:16;;;;;;;0.10;0.10;;;;;;;22.17;52.50;99707.13;4976107;28;20050;-76
2023/10/28 12:03:41;;;;;;;0.20;0.20;;;;;;;22.06;52.16;99666.84;4973750;28;20042;-76
2023/10/28 12:06:12;;;;;;;0.40;0.40;;;;;;;21.81;53.19;99636.22;4972741;28;20443;-75
2023/10/28 12:17:11;;;;;;;8.65;0.57;;;;;;;22.43;53.54;99721.66;4932767;28;20055;-77
2023/10/28 12:19:43;;;;;;;0.20;0.20;;;;;;;22.20;53.09;99674.03;4941274;28;20065;-75
2023/10/28 12:22:09;;;;;;;0.10;0.10;;;;;;;22.50;52.86;99720.34;4955269;28;20043;-76
2023/10/28 12:31:22;;;;;;;0.13;0.13;;;;;;;22.16;52.39;99651.13;4956755;28;20094;-76
2023/10/28 12:33:49;;;;;;;0.10;0.10;;;;;;;22.35;53.15;99694.53;4954574;28;20035;-75
2023/10/28 12:36:16;;;;;;;0.32;0.32;;;;;;;22.40;51.89;99699.59;4955528;28;20372;-75
2023/10/28 12:38:46;;;;;;;0.52;0.52;;;;;;;22.37;51.84;99684.59;4956730;28;20463;-76
2023/10/28 12:41:12;;;;;;;0.15;0.13;;;;;;;22.13;51.79;99647.69;4951415;28;20043;-75
2023/10/28 12:43:39;;;;;;;0.20;0.20;;;;;;;22.23;51.51;99676.56;4953266;28;20373;-75
2023/10/28 12:46:05;;;;;;;0.20;0.20;;;;;;;22.59;50.96;99726.06;4953440;28;20050;-75
2023/10/28 12:48:32;;;;;;;0.35;0.35;;;;;;;22.11;51.17;99654.91;4951594;28;20039;-77
2023/10/28 12:51:01;;;;;;;0.10;0.10;;;;;;;22.42;51.51;99708.38;4954645;28;20062;-77
2023/10/28 12:53:28;;;;;;;0.28;0.28;;;;;;;22.15;51.63;99660.97;4952312;28;20039;-77
2023/10/28 12:55:55;;;;;;;0.43;0.43;;;;;;;22.65;52.30;99736.41;4952848;28;20150;-78
2023/10/28 12:58:20;;;;;;;0.52;0.52;;;;;;;22.13;52.39;99661.03;4953588;28;20054;-77
2023/10/28 13:00:46;;;;;;;0.10;0.10;;;;;;;22.41;51.79;99707.53;4956067;28;20051;-77
2023/10/28 13:03:13;;;;;;;0.20;0.20;;;;;;;22.26;52.02;99695.06;4955500;28;20043;-77
2023/10/28 13:05:39;;;;;;;2.63;1.23;;;;;;;21.86;51.75;99638.63;4954411;28;20448;-77
2023/10/28 13:08:05;;;;;;;0.10;0.10;;;;;;;22.10;51.66;99695.97;4950510;28;20040;-76
2023/10/28 13:10:30;;;;;;;0.17;0.17;;;;;;;21.53;52.37;99585.41;4951251;28;20094;-75
2023/10/28 13:12:58;;;;;;;5.00;1.33;;;;;;;22.02;52.28;99670.66;4948807;28;20043;-76
2023/10/28 13:19:09;;;;;;;0.22;0.20;;;;;;;22.33;52.34;99741.88;4961497;28;20366;-76
2023/10/28 13:21:37;;;;;;;0.60;0.57;;;;;;;22.33;52.33;99742.72;4961106;28;20448;-76
2023/10/28 13:27:59;;;;;;;1.67;1.30;;;;;;;22.32;52.67;99746.34;4975162;28;20406;-75
2023/10/28 13:30:24;;;;;;;2.75;0.40;;;;;;;21.56;52.67;99642.13;4964514;28;20061;-77
2023/10/28 13:32:51;;;;;;;0.43;0.43;;;;;;;22.17;53.67;99738.34;4974486;28;20471;-78
2023/10/28 13:35:16;;;;;;;0.20;0.20;;;;;;;22.07;53.67;99736.22;4971294;28;20422;-76
2023/10/28 13:37:56;;;;;;;0.10;0.10;;;;;;;21.64;54.44;99660.41;4971126;28;20042;-76
2023/10/28 13:40:22;;;;;;;0.17;0.17;;;;;;;21.82;54.55;99667.34;4973577;28;20053;-76
2023/10/28 13:42:48;;;;;;;0.30;0.30;;;;;;;22.14;55.11;99728.69;4970461;28;20042;-76
2023/10/28 13:45:27;;;;;;;0.38;0.38;;;;;;;22.27;55.84;99751.13;4972986;28;20442;-75
2023/10/28 13:51:34;;;;;;;0.43;0.30;;;;;;;22.24;56.17;99755.78;4971680;28;20081;-76
2023/10/28 13:54:00;;;;;;;0.10;0.10;;;;;;;21.81;55.98;99676.28;4970927;28;20350;-76
2023/10/28 13:56:28;;;;;;;0.20;0.20;;;;;;;22.30;55.87;99763.44;4974129;28;20029;-77
2023/10/28 14:05:38;;;;;;;0.30;0.30;;;;;;;20.95;56.63;99597.56;4971094;28;20045;-78
2023/10/28 14:11:26;;;;;;;0.93;0.77;;;;;;;21.99;57.46;99769.69;4971679;28;20101;-76
2023/10/28 14:13:51;;;;;;;0.10;0.10;;;;;;;21.95;57.69;99773.47;4973532;28;20046;-76
2023/10/28 14:16:19;;;;;;;3.13;0.82;;;;;;;21.90;58.09;99763.06;4972127;28;20038;-76
2023/10/28 14:18:51;;;;;;;0.10;0.10;;;;;;;21.50;59.19;99719.94;4970879;28;20030;-75
2023/10/28 14:25:15;;;;;;;0.30;0.30;;;;;;;21.80;60.75;99799.25;4970476;28;20166;-76
2023/10/28 14:27:44;;;;;;;0.65;0.65;;;;;;;21.65;61.02;99792.94;4971829;28;20475;-76
2023/10/28 14:30:13;;;;;;;0.10;0.10;;;;;;;20.99;61.90;99672.00;4966531;28;20117;-76
2023/10/28 14:32:55;;;;;;;0.40;0.40;;;;;;;21.71;61.80;99800.63;4974039;28;20438;-76
2023/10/28 14:35:24;;;;;;;0.65;0.65;;;;;;;20.87;63.04;99686.88;4965223;28;20057;-75
2023/10/28 14:37:50;;;;;;;0.43;0.43;;;;;;;21.58;63.71;99796.91;4958034;28;20150;-76
2023/10/28 14:40:16;;;;;;;0.10;0.10;;;;;;;21.59;64.45;99795.97;4959250;28;20034;-76
2023/10/28 14:42:43;;;;;;;0.57;0.57;;;;;;;21.18;65.02;99733.22;4965768;28;20149;-76
2023/10/28 14:45:11;;;;;;;0.65;0.65;;;;;;;21.30;65.36;99769.03;4965222;28;20490;-75
2023/10/28 14:48:10;;;;;;;1.45;1.10;;;;;;;21.37;66.59;99809.59;4957408;28;20035;-75
2023/10/28 14:51:08;;;;;;;0.10;0.10;;;;;;;21.31;67.34;99810.81;4960421;28;20076;-75
2023/10/28 14:53:35;;;;;;;0.50;0.50;;;;;;;21.01;68.43;99763.47;4966072;28;20046;-75
2023/10/28 14:56:08;;;;;;;0.20;0.20;;;;;;;20.64;69.45;99713.91;4965107;28;20089;-75
2023/10/28 14:58:34;;;;;;;2.05;1.08;;;;;;;21.24;70.10;99820.09;4964439;28;20383;-76
2023/10/28 15:01:09;;;;;;;0.47;0.30;;;;;;;21.05;71.86;99826.41;4962551;28;20043;-76
2023/10/28 15:03:36;;;;;;;10.43;1.08;;;;;;;21.00;74.14;99825.78;4966509;28;20084;-76
2023/10/28 15:06:04;;;;;;;0.52;0.52;;;;;;;20.62;76.48;99801.94;4965504;28;20486;-76
2023/10/28 15:08:31;;;;;;;0.85;0.63;;;;;;;20.88;77.38;99829.06;4962939;28;20022;-78
2023/10/28 15:11:00;;;;;;;0.68;0.45;;;;;;;20.86;78.72;99844.28;4949475;28;20043;-76
2023/10/28 15:13:25;;;;;;;1.38;0.68;;;;;;;19.91;82.75;99743.34;4962584;28;20047;-76
2023/10/28 15:16:11;;;;;;;0.63;0.63;;;;;;;20.55;81.79;99812.97;4970630;28;20058;-75
2023/10/28 15:18:41;;;;;;;1.20;1.13;;;;;;;20.59;82.34;99818.09;4961666;28;20042;-76
2023/10/28 15:21:12;;;;;;;1.35;1.25;;;;;;;20.18;83.33;99767.75;4958497;28;20034;-74
2023/10/28 15:23:38;;;;;;;0.45;0.45;;;;;;;20.02;83.71;99761.47;4969635;28;20027;-76
2023/10/28 15:26:13;;;;;;;0.40;0.40;;;;;;;20.56;85.72;99855.59;4965492;28;20463;-77
2023/10/28 15:28:40;;;;;;;0.30;0.20;;;;;;;19.75;86.55;99731.72;4969990;28;20458;-78